• Join FlightAware (Why Join?)
  • Login
  • US Flag 
12:11PM EDT


 

Airport Tracker/Info


-or-


 

Live Flight TrackerFlight Track Log ✈ AAY843 ✈ 08-Jun-2014 ✈ KSYR - KPIE

Flight Track Log - Related Links

Times and Time Zones

All times are in EDT time to prevent confusion due to time zone crossing. See the AAY843 flight status page for this flight to view local times or setup timezone preferences in your user account.

Time Position Orientation Groundspeed Altitude Reporting Facility
EDT Latitude Longitude Course Direction KTS MPH feet Rate Location/Type
10:27AM 43.1081 -76.1422 264° West 170 196 1,400  Level Boston Center
10:27AM 43.1064 -76.1650 264° West 165 190 2,100 1,620 Climbing Boston Center
10:28AM 43.0553 -76.2275 222° Southwest 244 281 3,900 1,860 Climbing Boston Center
10:29AM 43.0356 -76.2467 215° Southwest 229 264 5,000 2,700 Climbing Boston Center
10:30AM 42.9714 -76.3003 211° Southwest 266 306 7,900 2,400 Climbing Boston Center
10:31AM 42.9056 -76.3547 211° Southwest 273 314 10,000 1,440 Climbing Boston Center
10:32AM 42.8231 -76.4250 212° Southwest 348 400 10,900 1,800 Climbing Boston Center
10:33AM 42.7297 -76.5028 211° Southwest 360 414 13,800 2,460 Climbing Boston Center
10:34AM 42.6389 -76.5781 211° Southwest 375 432 16,000 2,040 Climbing Boston Center
10:35AM 42.5431 -76.6581 212° Southwest 399 459 18,100 1,980 Climbing Boston Center
10:36AM 42.4442 -76.7392 211° Southwest 411 473 20,100 1,920 Climbing Boston Center
10:37AM 42.3425 -76.8228 211° Southwest 419 482 22,100 1,380 Climbing Boston Center
10:38AM 42.2397 -76.9067 211° Southwest 425 489 23,000 420 Climbing Boston Center
10:39AM 42.1142 -77.0025 210° Southwest 429 494 23,000 480 Level Boston Center
10:40AM 41.9922 -76.9928 177° South 442 509 24,100 1,020 Climbing Boston Center
10:41AM 41.8669 -76.9506 166° South 458 527 25,200 1,080 Climbing Boston Center
10:42AM 41.7378 -76.9086 166° South 476 548 26,400 1,320 Climbing Boston Center
10:43AM 41.5978 -76.8619 166° South 477 549 28,000 660 Climbing Boston Center
10:44AM 41.4386 -76.8122 167° South 484 557 28,000  Level New York Center
10:45AM 41.3061 -76.7919 173° South 484 557 28,000 660 Level New York Center
10:46AM 41.1775 -76.8219 190° South 467 537 29,400 1,200 Climbing New York Center
10:47AM 41.0528 -76.8603 193° South 467 537 30,500 1,080 Climbing New York Center
10:48AM 40.9281 -76.8958 192° South 467 537 31,600 720 Climbing New York Center
10:49AM 40.8031 -76.9314 192° South 467 537 32,000 180 Climbing New York Center
10:50AM 40.6783 -76.9667 192° South 467 537 32,000  Level New York Center
10:51AM 40.5536 -77.0017 192° South 467 537 32,000  Level New York Center
10:52AM 40.4264 -77.0394 193° South 467 537 32,000  Level New York Center
10:53AM 40.3094 -77.0858 197° South 467 537 32,000  Level New York Center
10:54AM 40.1914 -77.1458 201° Southwest 457 526 32,000  Level New York Center
10:55AM 40.0867 -77.1961 200° South 452 520 32,000  Level New York Center
10:56AM 39.9711 -77.2506 200° South 452 520 32,000  Level New York Center
10:58AM 39.7528 -77.3539 200° South 465 535 32,000  Level Washington Center
10:59AM 39.6353 -77.4103 200° South 465 535 32,000  Level Washington Center
11:00AM 39.5158 -77.4664 200° South 460 529 32,000  Level Washington Center
11:01AM 39.3983 -77.5200 199° South 455 524 32,000  Level Washington Center
11:02AM 39.2828 -77.5758 201° Southwest 449 517 32,000  Level Washington Center
11:03AM 39.1650 -77.6289 199° South 449 517 32,000  Level Washington Center
11:04AM 39.0347 -77.6867 199° South 449 517 32,000  Level Washington Center
11:05AM 38.9317 -77.7372 201° Southwest 449 517 32,000  Level Washington Center
11:06AM 38.8036 -77.7919 198° South 444 511 32,000  Level Washington Center
11:07AM 38.6836 -77.8522 201° Southwest 455 524 32,000  Level Washington Center
11:08AM 38.5722 -77.9019 199° South 450 518 32,000  Level Washington Center
11:09AM 38.4522 -77.9567 200° South 445 512 32,000  Level Washington Center
11:10AM 38.3408 -78.0086 200° South 450 518 32,000  Level Washington Center
11:11AM 38.2231 -78.0603 199° South 450 518 32,000  Level Washington Center
11:12AM 38.1050 -78.1144 200° South 450 518 32,000  Level Washington Center
11:13AM 37.9914 -78.1661 200° South 445 512 32,000  Level Washington Center
11:14AM 37.8792 -78.2383 207° Southwest 445 512 32,000  Level Washington Center
11:15AM 37.7733 -78.3108 208° Southwest 445 512 32,000  Level Washington Center
11:16AM 37.6653 -78.3806 207° Southwest 439 505 32,000  Level Washington Center
11:17AM 37.5594 -78.4500 207° Southwest 439 505 32,000  Level Washington Center
11:18AM 37.4472 -78.5217 207° Southwest 444 511 32,000  Level Washington Center
11:19AM 37.3517 -78.5858 208° Southwest 444 511 32,000  Level Washington Center
11:20AM 37.2331 -78.6594 206° Southwest 437 503 32,000  Level Washington Center
11:21AM 37.1333 -78.7233 207° Southwest 442 509 32,000  Level Washington Center
11:22AM 37.0144 -78.7992 207° Southwest 442 509 32,000  Level Washington Center
11:23AM 36.9167 -78.8625 207° Southwest 442 509 32,000  Level Washington Center
11:24AM 36.7956 -78.9406 207° Southwest 442 509 32,000  Level Washington Center
11:25AM 36.6981 -78.9958 204° Southwest 442 509 32,000  Level Washington Center
11:26AM 36.5586 -78.9897 178° South 436 502 32,000  Level Washington Center
11:27AM 36.4325 -78.9508 166° South 450 518 32,000  Level Washington Center
11:28AM 36.3061 -78.9144 167° South 461 531 32,000  Level Washington Center
11:29AM 36.1778 -78.8756 166° South 466 536 32,000  Level Washington Center
11:30AM 36.0517 -78.8394 167° South 466 536 32,000  Level Washington Center
11:31AM 35.9219 -78.8469 183° South 460 529 32,000  Level Washington Center
11:32AM 35.8133 -78.9244 210° Southwest 436 502 32,000  Level Washington Center
11:33AM 35.7047 -79.0042 211° Southwest 441 507 32,000  Level Washington Center
11:34AM 35.6003 -79.0814 211° Southwest 447 514 32,000  Level Washington Center
11:35AM 35.5064 -79.1489 210° Southwest 447 514 32,000  Level Washington Center
11:36AM 35.3869 -79.2353 211° Southwest 452 520 32,000  Level Washington Center
11:37AM 35.2889 -79.3047 210° Southwest 452 520 32,000  Level Washington Center
11:38AM 35.1800 -79.3833 211° Southwest 457 526 32,000  Level Washington Center
11:39AM 35.0753 -79.4597 211° Southwest 457 526 32,000  Level Washington Center
11:42AM 34.7942 -79.6567 210° Southwest 453 521 32,000  Level Jacksonville Center
11:43AM 34.6878 -79.7339 211° Southwest 453 521 32,000  Level Jacksonville Center
11:44AM 34.5792 -79.8111 210° Southwest 453 521 32,000 -60 Level Jacksonville Center
11:45AM 34.4889 -79.8822 213° Southwest 453 521 31,900 -60 Descending Jacksonville Center
11:46AM 34.3781 -79.9567 209° Southwest 448 516 31,900  Level Jacksonville Center
11:47AM 34.2714 -80.0306 210° Southwest 448 516 31,900  Level Jacksonville Center
11:48AM 34.1625 -80.1094 211° Southwest 448 516 31,900  Level Jacksonville Center
11:49AM 34.0514 -80.1856 210° Southwest 455 524 31,900  Level Jacksonville Center
11:50AM 33.9425 -80.2617 210° Southwest 455 524 31,900  Level Jacksonville Center
11:51AM 33.8356 -80.3372 210° Southwest 455 524 31,900  Level Jacksonville Center
11:52AM 33.7244 -80.4156 210° Southwest 455 524 31,900  Level Jacksonville Center
11:53AM 33.6153 -80.4908 210° Southwest 455 524 31,900  Level Jacksonville Center
11:54AM 33.5042 -80.5686 210° Southwest 455 524 31,900  Level Jacksonville Center
11:55AM 33.3969 -80.6436 210° Southwest 455 524 31,900  Level Jacksonville Center
11:56AM 33.2856 -80.7183 209° Southwest 455 524 31,900  Level Jacksonville Center
11:57AM 33.1761 -80.7931 210° Southwest 455 524 31,900  Level Jacksonville Center
11:58AM 33.0544 -80.8825 212° Southwest 455 524 31,900  Level Jacksonville Center
11:59AM 32.9536 -80.9714 216° Southwest 466 536 31,900  Level Jacksonville Center
12:00PM 32.8506 -81.0628 217° Southwest 466 536 31,900  Level Jacksonville Center
12:01PM 32.7539 -81.1586 220° Southwest 472 543 31,900  Level Jacksonville Center
12:02PM 32.6528 -81.2517 218° Southwest 466 536 32,000  Climbing Jacksonville Center
12:03PM 32.5492 -81.3128 206° Southwest 466 536 32,000  Level Jacksonville Center
12:04PM 32.4228 -81.3914 208° Southwest 466 536 32,000  Level Jacksonville Center
12:05PM 32.3108 -81.4619 208° Southwest 466 536 32,000  Level Jacksonville Center
12:06PM 32.1947 -81.5325 207° Southwest 466 536 32,000  Level Jacksonville Center
12:07PM 32.0806 -81.6028 208° Southwest 458 527 32,000  Level Jacksonville Center
12:08PM 31.9703 -81.6461 198° South 467 537 32,000  Level Jacksonville Center
12:09PM 31.8331 -81.6869 194° South 468 539 32,000  Level Jacksonville Center
12:10PM 31.7206 -81.7228 195° South 467 537 32,000  Level Jacksonville Center
12:11PM 31.5831 -81.7658 195° South 473 544 32,000  Level Jacksonville Center
12:12PM 31.4561 -81.8039 194° South 473 544 32,000 -60 Level Jacksonville Center
12:13PM 31.3311 -81.8394 194° South 473 544 31,900 -60 Descending Jacksonville Center
12:14PM 31.2083 -81.8772 195° South 468 539 31,900  Level Jacksonville Center
12:15PM 31.0833 -81.9175 195° South 468 539 31,900  Level Jacksonville Center
12:16PM 30.9583 -81.9550 194° South 468 539 31,900  Level Jacksonville Center
12:17PM 30.8311 -81.9903 193° South 468 539 31,900  Level Jacksonville Center
12:18PM 30.7061 -82.0300 195° South 468 539 31,900  Level Jacksonville Center
12:19PM 30.5811 -82.0672 194° South 473 544 31,900  Level Jacksonville Center
12:20PM 30.4708 -82.0972 193° South 467 537 31,900  Level Jacksonville Center
12:21PM 30.3456 -82.1319 193° South 467 537 31,900  Level Jacksonville Center
12:22PM 30.2228 -82.1714 196° South 467 537 31,900  Level Jacksonville Center
12:23PM 30.0997 -82.2058 194° South 467 537 31,900  Level Jacksonville Center
12:24PM 29.9622 -82.2500 196° South 467 537 31,900 -240 Level Jacksonville Center
12:25PM 29.8369 -82.2867 194° South 467 537 31,500 -1,200 Descending Jacksonville Center
12:26PM 29.7286 -82.3161 193° South 467 537 29,500 -2,100 Descending Jacksonville Center
12:27PM 29.5972 -82.3528 194° South 467 537 27,300 -1,800 Descending Jacksonville Center
12:28PM 29.4636 -82.3464 178° South 473 544 25,900 -1,320 Descending Jacksonville Center
12:29PM 29.3406 -82.3303 173° South 465 535 24,700 -2,040 Descending Jacksonville Center
12:30PM 29.2150 -82.3144 174° South 459 528 21,900 -2,820 Descending Jacksonville Center
12:31PM 29.0897 -82.3008 175° South 459 528 19,100 -2,820 Descending Jacksonville Center
12:32PM 28.9708 -82.2875 174° South 453 521 16,300 -2,820 Descending Jacksonville Center
12:33PM 28.8517 -82.2714 173° South 442 509 13,500 -1,200 Descending Jacksonville Center
12:35PM 28.6489 -82.2575 177° South 350 403 12,700 -540 Descending Miami Center
12:36PM 28.5731 -82.2972 205° Southwest 326 375 11,900 -780 Descending Miami Center
12:37PM 28.5167 -82.4167 242° Southwest 316 364 11,000 -720 Descending Tampa TRACON
12:38PM 28.4667 -82.5167 240° Southwest 313 360 10,300 -1,020 Descending Tampa TRACON
12:39PM 28.4000 -82.5833 221° Southwest 313 360 8,900 -1,320 Descending Tampa TRACON
12:40PM 28.3544 -82.6147 211° Southwest 312 359 7,900 -1,320 Descending Miami Center
12:41PM 28.2875 -82.6656 214° Southwest 298 343 6,500 -1,440 Descending Miami Center
12:42PM 28.1961 -82.6897 193° South 286 329 5,000 -1,200 Descending Miami Center
12:43PM 28.1206 -82.7119 195° South 285 328 4,100 -540 Descending Miami Center
12:44PM 28.0475 -82.7311 193° South 277 319 4,000 -300 Descending Miami Center
12:45PM 27.9667 -82.7500 192° South 262 302 3,500 -660 Descending Tampa TRACON
12:46PM 27.9000 -82.7500 180° South 205 236 2,600 -660 Descending Tampa TRACON
12:47PM 27.8500 -82.7500 180° South 190 219 2,200 -660 Descending Tampa TRACON
12:48PM 27.8167 -82.7000 127° Southeast 198 228 1,400 -780 Descending Tampa TRACON
12:49PM 27.8667 -82.6833 16° North 153 176 600 -780 Descending Tampa TRACON
12:52PM 27.9000 -82.6833 310° West  Level FlightAware Approximate